createdAt,value
2022-12-19T00:02:48.302Z,82.10
2022-12-19T00:05:57.238Z,82.19
2022-12-19T00:09:08.399Z,82.21
2022-12-19T00:12:19.267Z,82.17
2022-12-19T00:15:25.385Z,82.22
2022-12-19T00:18:31.727Z,82.20
2022-12-19T00:21:39.635Z,82.24
2022-12-19T00:24:47.670Z,82.17
2022-12-19T00:27:54.727Z,82.17
2022-12-19T00:31:04.411Z,82.22
2022-12-19T00:34:09.419Z,82.19
2022-12-19T00:37:15.786Z,82.19
2022-12-19T00:40:22.756Z,82.10
2022-12-19T00:43:32.036Z,82.06
2022-12-19T00:46:38.913Z,82.11
2022-12-19T00:49:46.186Z,82.10
2022-12-19T00:52:54.246Z,82.11
2022-12-19T00:56:00.472Z,82.13
2022-12-19T00:59:08.801Z,82.09
2022-12-19T01:02:14.200Z,82.06
2022-12-19T01:05:21.913Z,82.03
2022-12-19T01:08:29.227Z,82.07
2022-12-19T01:11:55.535Z,82.10
2022-12-19T01:15:04.547Z,82.08
2022-12-19T01:18:09.287Z,82.08
2022-12-19T01:21:20.305Z,82.05
2022-12-19T01:24:26.621Z,81.98
2022-12-19T01:27:32.310Z,82.01
2022-12-19T01:30:37.545Z,82.02
2022-12-19T01:33:44.569Z,82.06
2022-12-19T01:36:51.857Z,82.12
2022-12-19T01:39:58.757Z,82.10
2022-12-19T01:43:05.525Z,82.12
2022-12-19T01:46:18.831Z,81.99
2022-12-19T01:49:49.890Z,81.96
2022-12-19T01:52:56.990Z,81.93
2022-12-19T01:56:10.500Z,81.93
2022-12-19T01:59:10.856Z,81.95
2022-12-19T02:01:58.423Z,81.92
2022-12-19T02:04:52.455Z,81.90
2022-12-19T02:07:57.469Z,81.85
2022-12-19T02:11:02.881Z,81.94
2022-12-19T02:14:08.502Z,81.97
2022-12-19T02:17:29.097Z,81.94
2022-12-19T02:21:12.485Z,81.88
2022-12-19T02:25:13.023Z,81.83
2022-12-19T02:28:48.464Z,81.77
2022-12-19T02:32:08.415Z,81.76
2022-12-19T02:35:39.330Z,81.80
2022-12-19T02:39:03.385Z,81.79
2022-12-19T02:42:13.956Z,81.80
2022-12-19T02:45:28.342Z,81.79
2022-12-19T02:48:28.900Z,81.79
2022-12-19T02:51:35.950Z,81.75
2022-12-19T02:54:44.989Z,81.77
2022-12-19T02:58:05.893Z,81.73
2022-12-19T03:01:16.045Z,81.75
2022-12-19T03:04:47.996Z,81.78
2022-12-19T03:08:23.497Z,81.74
2022-12-19T03:11:29.661Z,81.79
2022-12-19T03:14:38.010Z,81.80
2022-12-19T03:17:43.068Z,81.80
2022-12-19T03:21:03.811Z,81.82
2022-12-19T03:24:09.701Z,81.78
2022-12-19T03:27:35.550Z,81.75
2022-12-19T03:30:42.587Z,81.68
2022-12-19T03:33:49.161Z,81.58
2022-12-19T03:36:58.113Z,81.52
2022-12-19T03:40:09.647Z,81.44
2022-12-19T03:43:18.932Z,81.45
2022-12-19T03:46:33.012Z,81.41
2022-12-19T03:49:39.400Z,81.44
2022-12-19T03:53:07.702Z,81.51
2022-12-19T03:56:30.499Z,81.55
2022-12-19T03:59:49.955Z,81.55
2022-12-19T04:02:59.921Z,81.68
2022-12-19T04:06:05.041Z,81.61
2022-12-19T04:09:12.214Z,81.60
2022-12-19T04:12:23.469Z,81.55
2022-12-19T04:15:29.922Z,81.35
2022-12-19T04:18:34.669Z,81.28
2022-12-19T04:21:48.427Z,81.21
2022-12-19T04:24:56.718Z,81.19
2022-12-19T04:28:06.838Z,81.14
2022-12-19T04:31:13.239Z,81.16
2022-12-19T04:34:18.204Z,81.15
2022-12-19T04:37:25.165Z,81.11
2022-12-19T04:40:35.431Z,81.17
2022-12-19T04:43:40.405Z,81.17
2022-12-19T04:46:46.506Z,81.17
2022-12-19T04:49:52.031Z,81.07
2022-12-19T04:52:57.805Z,80.98
2022-12-19T04:56:02.682Z,80.96
2022-12-19T04:59:13.717Z,81.02
2022-12-19T05:02:21.872Z,80.97
2022-12-19T05:05:29.195Z,80.97
2022-12-19T05:08:36.058Z,80.83
2022-12-19T05:11:41.989Z,80.65
2022-12-19T05:14:47.685Z,80.70
2022-12-19T05:17:53.848Z,80.84
2022-12-19T05:21:02.865Z,80.88
2022-12-19T05:24:08.591Z,80.80
2022-12-19T05:27:13.393Z,80.79
2022-12-19T05:30:20.096Z,80.80
2022-12-19T05:33:28.390Z,80.73
2022-12-19T05:36:34.297Z,80.65
2022-12-19T05:39:43.954Z,80.67
2022-12-19T05:42:55.431Z,80.59
2022-12-19T05:46:02.392Z,80.60
2022-12-19T05:49:07.777Z,80.54
2022-12-19T05:52:13.651Z,80.38
2022-12-19T05:55:18.299Z,80.29
2022-12-19T05:58:26.559Z,80.21
2022-12-19T06:01:38.020Z,80.36
2022-12-19T06:04:45.310Z,80.50
2022-12-19T06:07:51.519Z,80.57
2022-12-19T06:10:56.799Z,80.50
2022-12-19T06:14:03.420Z,80.48
2022-12-19T06:17:08.586Z,80.41
2022-12-19T06:20:33.462Z,80.22
2022-12-19T06:23:46.336Z,80.23
2022-12-19T06:26:58.006Z,80.28
2022-12-19T06:30:03.335Z,80.25
2022-12-19T06:33:08.164Z,80.20
2022-12-19T06:36:19.700Z,80.10
2022-12-19T06:39:29.512Z,80.03
2022-12-19T06:42:34.891Z,79.97
2022-12-19T06:45:43.419Z,79.98
2022-12-19T06:48:50.415Z,79.94
2022-12-19T06:51:56.862Z,79.91
2022-12-19T06:55:04.736Z,79.77
2022-12-19T06:58:10.300Z,79.76
2022-12-19T07:01:17.615Z,79.87
2022-12-19T07:04:24.319Z,79.90
2022-12-19T07:07:31.903Z,79.89
2022-12-19T07:10:41.213Z,79.93
2022-12-19T07:13:49.646Z,79.99
2022-12-19T07:16:56.787Z,79.92
2022-12-19T07:20:19.633Z,79.94
2022-12-19T07:23:27.952Z,79.81
2022-12-19T07:26:33.952Z,79.83
2022-12-19T07:29:39.007Z,79.73
2022-12-19T07:32:46.989Z,79.79
2022-12-19T07:35:54.047Z,79.78
2022-12-19T07:38:59.567Z,79.78
2022-12-19T07:42:09.173Z,79.78
2022-12-19T07:45:16.312Z,79.76
2022-12-19T07:48:21.665Z,79.82
2022-12-19T07:51:27.883Z,79.76
2022-12-19T07:54:34.934Z,79.78
2022-12-19T07:57:40.813Z,79.76
2022-12-19T08:00:48.746Z,79.80
2022-12-19T08:03:54.549Z,79.73
2022-12-19T08:07:03.267Z,79.73
2022-12-19T08:10:15.392Z,79.72
2022-12-19T08:13:22.443Z,79.80
2022-12-19T08:16:29.170Z,79.89
2022-12-19T08:19:35.546Z,79.92
2022-12-19T08:22:45.360Z,79.91
2022-12-19T08:26:01.905Z,79.91
2022-12-19T08:29:09.691Z,79.95
2022-12-19T08:32:20.779Z,79.96
2022-12-19T08:35:25.389Z,79.83
2022-12-19T08:38:32.384Z,79.81
2022-12-19T08:41:38.964Z,79.70
2022-12-19T08:44:44.753Z,79.59
2022-12-19T08:47:53.052Z,79.61
2022-12-19T08:51:12.437Z,79.70
2022-12-19T08:54:19.959Z,79.82
2022-12-19T08:57:27.701Z,79.82
2022-12-19T09:00:37.572Z,79.89
2022-12-19T09:04:15.516Z,79.97
2022-12-19T09:06:51.846Z,79.81
2022-12-19T09:09:57.314Z,79.88
2022-12-19T09:13:03.036Z,79.85
2022-12-19T09:16:22.374Z,79.83
2022-12-19T09:19:27.715Z,79.75
2022-12-19T09:22:33.317Z,79.60
2022-12-19T09:25:38.191Z,79.71
2022-12-19T09:28:44.173Z,79.78
2022-12-19T09:31:55.633Z,79.90
2022-12-19T09:34:58.040Z,79.95
2022-12-19T09:38:02.681Z,79.88
2022-12-19T09:41:36.482Z,79.78
2022-12-19T09:45:18.128Z,79.85
2022-12-19T09:48:25.282Z,79.85
2022-12-19T09:51:47.564Z,79.77
2022-12-19T09:54:59.053Z,79.79
2022-12-19T09:58:21.010Z,79.78
2022-12-19T10:01:53.124Z,79.86
2022-12-19T10:06:25.895Z,79.83
2022-12-19T10:08:45.471Z,79.87
2022-12-19T10:12:45.532Z,79.81
2022-12-19T10:16:00.534Z,79.81
2022-12-19T10:19:16.450Z,79.85
2022-12-19T10:22:43.968Z,79.77
2022-12-19T10:26:08.168Z,79.81
2022-12-19T10:29:36.209Z,79.76
2022-12-19T10:37:25.550Z,79.86
2022-12-19T10:40:28.527Z,79.97
2022-12-19T10:43:51.155Z,80.09
2022-12-19T10:47:00.742Z,80.26
2022-12-19T10:50:09.914Z,80.37
2022-12-19T10:53:23.473Z,80.26
2022-12-19T10:56:38.801Z,80.06
2022-12-19T10:59:45.697Z,79.94
2022-12-19T11:02:56.395Z,80.00
2022-12-19T11:06:06.632Z,80.06
2022-12-19T11:09:36.295Z,80.05
2022-12-19T11:16:42.098Z,79.99
2022-12-19T11:23:15.531Z,80.00
2022-12-19T11:25:56.666Z,79.89
2022-12-19T11:29:46.486Z,79.83
2022-12-19T11:30:42.999Z,79.78
2022-12-19T11:32:53.561Z,80.06
2022-12-19T11:36:13.819Z,80.13
2022-12-19T11:39:20.480Z,80.10
2022-12-19T11:43:10.958Z,80.03
2022-12-19T11:46:34.385Z,79.94
2022-12-19T11:49:52.163Z,79.84
2022-12-19T11:53:26.120Z,79.91
2022-12-19T11:56:34.567Z,80.10
2022-12-19T11:59:49.501Z,80.30
2022-12-19T12:03:16.727Z,80.29
2022-12-19T12:06:31.602Z,80.30
2022-12-19T12:14:27.553Z,80.10
2022-12-19T12:16:21.055Z,79.97
2022-12-19T12:31:00.175Z,79.95
2022-12-19T12:31:05.268Z,80.14
2022-12-19T12:31:07.828Z,80.17
2022-12-19T12:32:02.268Z,80.21
2022-12-19T12:36:53.029Z,80.21
2022-12-19T12:38:46.225Z,80.25
2022-12-19T12:42:14.371Z,80.27
2022-12-19T12:45:30.980Z,80.20
2022-12-19T12:49:03.193Z,80.28
2022-12-19T12:52:04.177Z,80.31
2022-12-19T12:55:09.856Z,80.24
2022-12-19T12:58:20.860Z,80.19
2022-12-19T13:01:41.119Z,80.18
2022-12-19T13:04:53.994Z,80.12
2022-12-19T13:08:07.873Z,79.90
2022-12-19T13:11:52.172Z,79.86
2022-12-19T13:15:02.744Z,79.79
2022-12-19T13:18:13.190Z,79.78
2022-12-19T13:21:20.700Z,79.80
2022-12-19T13:24:33.497Z,79.86
2022-12-19T13:27:48.973Z,79.87
2022-12-19T13:31:21.088Z,79.88
2022-12-19T13:34:33.030Z,79.90
2022-12-19T13:39:59.033Z,79.89
2022-12-19T13:41:19.484Z,79.87
2022-12-19T13:44:26.388Z,79.83
2022-12-19T13:47:32.635Z,79.90
2022-12-19T13:50:51.175Z,79.98
2022-12-19T13:53:59.854Z,80.02
2022-12-19T13:57:09.672Z,80.03
2022-12-19T14:00:16.500Z,80.07
2022-12-19T14:03:31.780Z,80.03
2022-12-19T14:06:44.653Z,80.05
2022-12-19T14:11:28.817Z,80.00
2022-12-19T14:13:56.768Z,79.97
2022-12-19T14:16:43.552Z,79.97
2022-12-19T14:19:42.430Z,79.92
2022-12-19T14:23:09.070Z,79.85
2022-12-19T14:28:22.084Z,79.85
2022-12-19T14:30:28.525Z,79.85
2022-12-19T14:33:46.642Z,79.90
2022-12-19T14:36:21.633Z,79.85
2022-12-19T14:39:32.061Z,79.78
2022-12-19T14:43:56.613Z,79.84
2022-12-19T14:52:51.900Z,79.73
2022-12-19T14:53:34.303Z,79.76
2022-12-19T14:54:50.557Z,79.71
2022-12-19T14:56:54.200Z,79.71
2022-12-19T14:59:52.534Z,79.69
2022-12-19T15:02:59.061Z,79.76
2022-12-19T15:07:05.202Z,79.77
2022-12-19T15:11:03.268Z,79.66
2022-12-19T15:14:48.023Z,79.65
2022-12-19T15:16:08.314Z,79.67
2022-12-19T15:19:15.604Z,79.79
2022-12-19T15:22:21.202Z,79.84
2022-12-19T15:28:47.219Z,79.77
2022-12-19T15:31:56.583Z,79.71
2022-12-19T15:35:02.841Z,79.59
2022-12-19T15:38:08.941Z,79.61
2022-12-19T15:41:14.709Z,79.72
2022-12-19T15:44:37.290Z,79.74
2022-12-19T15:47:51.472Z,79.74
2022-12-19T15:50:57.735Z,79.74
2022-12-19T15:57:11.931Z,79.65
2022-12-19T16:00:22.666Z,79.67
2022-12-19T16:03:29.959Z,79.64
2022-12-19T16:06:35.736Z,79.59
2022-12-19T16:09:41.810Z,79.47
2022-12-19T16:12:50.718Z,79.47
2022-12-19T16:15:57.453Z,79.57
2022-12-19T16:19:03.323Z,79.56
2022-12-19T16:22:08.504Z,79.58
2022-12-19T16:25:15.420Z,79.61
2022-12-19T16:28:20.787Z,79.59
2022-12-19T16:31:33.336Z,79.45
2022-12-19T16:34:39.787Z,79.40
2022-12-19T16:37:47.189Z,79.47
2022-12-19T16:40:53.433Z,79.57
2022-12-19T16:43:59.559Z,79.53
2022-12-19T16:47:06.072Z,79.48
2022-12-19T16:50:11.160Z,79.50
2022-12-19T16:53:16.733Z,79.40
2022-12-19T16:56:25.703Z,79.42
2022-12-19T16:59:47.787Z,79.53
2022-12-19T17:02:57.976Z,79.53
2022-12-19T17:06:03.264Z,79.52
2022-12-19T17:09:08.511Z,79.48
2022-12-19T17:12:16.523Z,79.40
2022-12-19T17:15:36.667Z,79.35
2022-12-19T17:18:48.913Z,79.19
2022-12-19T17:21:55.387Z,79.24
2022-12-19T17:25:01.748Z,79.30
2022-12-19T17:28:07.048Z,79.31
2022-12-19T17:31:17.635Z,79.24
2022-12-19T17:34:38.523Z,79.20
2022-12-19T17:37:43.501Z,79.25
2022-12-19T17:40:49.216Z,79.26
2022-12-19T17:43:56.818Z,79.28
2022-12-19T17:47:02.463Z,79.32
2022-12-19T17:50:08.215Z,79.35
2022-12-19T17:53:13.166Z,79.41
2022-12-19T17:56:18.873Z,79.40
2022-12-19T17:59:24.700Z,79.46
2022-12-19T18:02:39.480Z,79.46
2022-12-19T18:05:50.375Z,79.47
2022-12-19T18:08:59.620Z,79.48
2022-12-19T18:12:06.593Z,79.50
2022-12-19T18:15:13.288Z,79.56
2022-12-19T18:18:18.603Z,79.57
2022-12-19T18:21:32.407Z,79.53
2022-12-19T18:24:57.168Z,79.49
2022-12-19T18:28:04.828Z,79.40
2022-12-19T18:31:24.670Z,79.41
2022-12-19T18:34:37.258Z,79.43
2022-12-19T18:37:44.188Z,79.45
2022-12-19T18:40:50.962Z,79.52
2022-12-19T18:43:57.757Z,79.56
2022-12-19T18:47:09.340Z,79.56
2022-12-19T18:50:16.037Z,79.60
2022-12-19T18:53:32.771Z,79.58
2022-12-19T18:56:35.066Z,79.54
2022-12-19T18:59:41.456Z,79.51
2022-12-19T19:02:48.752Z,79.59
2022-12-19T19:05:57.626Z,79.61
2022-12-19T19:09:06.082Z,79.58
2022-12-19T19:12:17.582Z,79.53
2022-12-19T19:15:38.687Z,79.49
2022-12-19T19:18:53.505Z,79.47
2022-12-19T19:21:59.347Z,79.40
2022-12-19T19:25:06.802Z,79.38
2022-12-19T19:28:13.594Z,79.42
2022-12-19T19:31:18.610Z,79.41
2022-12-19T19:34:40.330Z,79.37
2022-12-19T19:37:46.700Z,79.36
2022-12-19T19:40:53.436Z,79.28
2022-12-19T19:43:59.736Z,79.24
2022-12-19T19:47:06.368Z,79.22
2022-12-19T19:50:13.091Z,79.21
2022-12-19T19:53:19.954Z,79.19
2022-12-19T19:56:25.780Z,79.25
2022-12-19T19:59:31.216Z,79.31
2022-12-19T20:02:37.229Z,79.30
2022-12-19T20:05:43.892Z,79.33
2022-12-19T20:08:50.074Z,79.35
2022-12-19T20:11:56.799Z,79.33
2022-12-19T20:15:03.505Z,79.24
2022-12-19T20:18:08.446Z,79.16
2022-12-19T20:21:17.441Z,79.09
2022-12-19T20:24:23.128Z,79.11
2022-12-19T20:27:30.357Z,79.13
2022-12-19T20:30:36.897Z,79.15
2022-12-19T20:33:43.852Z,79.15
2022-12-19T20:36:49.537Z,79.15
2022-12-19T20:39:58.828Z,79.19
2022-12-19T20:43:06.112Z,79.22
2022-12-19T20:46:21.632Z,79.21
2022-12-19T20:49:28.535Z,79.16
2022-12-19T20:52:33.636Z,79.16
2022-12-19T20:55:38.924Z,79.19
2022-12-19T20:58:45.789Z,79.17
2022-12-19T21:01:51.922Z,79.17
2022-12-19T21:04:59.496Z,79.17
2022-12-19T21:08:06.323Z,79.10
2022-12-19T21:11:12.251Z,79.02
2022-12-19T21:14:18.004Z,78.98
2022-12-19T21:17:24.435Z,78.90
2022-12-19T21:20:34.576Z,78.91
2022-12-19T21:23:40.642Z,78.93
2022-12-19T21:26:46.437Z,78.90
2022-12-19T21:29:52.652Z,78.90
2022-12-19T21:32:58.704Z,78.87
2022-12-19T21:36:03.812Z,78.85
2022-12-19T21:39:11.376Z,78.82
2022-12-19T21:42:17.905Z,78.84
2022-12-19T21:45:26.420Z,78.84
2022-12-19T21:48:32.553Z,78.82
2022-12-19T21:51:40.465Z,78.82
2022-12-19T21:54:46.751Z,78.75
2022-12-19T21:57:55.819Z,78.72
2022-12-19T22:01:07.672Z,78.70
2022-12-19T22:04:21.729Z,78.63
2022-12-19T22:07:27.731Z,78.58
2022-12-19T22:10:32.784Z,78.54
2022-12-19T22:13:40.395Z,78.53
2022-12-19T22:16:47.674Z,78.49
2022-12-19T22:19:56.243Z,78.48
2022-12-19T22:23:01.872Z,78.49
2022-12-19T22:26:29.736Z,78.49
2022-12-19T22:29:35.239Z,78.48
2022-12-19T22:32:44.187Z,78.50
2022-12-19T22:35:51.020Z,78.52
2022-12-19T22:38:58.195Z,78.57
2022-12-19T22:42:04.506Z,78.59
2022-12-19T22:45:10.997Z,78.59
2022-12-19T22:48:16.102Z,78.59
2022-12-19T22:51:21.869Z,78.62
2022-12-19T22:54:28.608Z,78.66
2022-12-19T22:57:34.554Z,78.65
2022-12-19T23:00:39.751Z,78.61
2022-12-19T23:03:46.293Z,78.53
2022-12-19T23:06:52.483Z,78.47
2022-12-19T23:09:59.838Z,78.45
2022-12-19T23:13:04.697Z,78.44
2022-12-19T23:16:12.465Z,78.46
2022-12-19T23:19:20.738Z,78.47
2022-12-19T23:22:26.995Z,78.41
2022-12-19T23:25:34.672Z,78.36
2022-12-19T23:28:40.335Z,78.35
2022-12-19T23:31:48.035Z,78.34
2022-12-19T23:34:55.130Z,78.36
2022-12-19T23:38:00.847Z,78.38
2022-12-19T23:41:06.315Z,78.43
2022-12-19T23:44:12.558Z,78.42
2022-12-19T23:47:17.639Z,78.38
2022-12-19T23:50:24.716Z,78.38
2022-12-19T23:53:29.917Z,78.40
2022-12-19T23:56:39.771Z,78.40
2022-12-19T23:59:45.709Z,78.39
